Time;durP1;ratioP1;P1;durP2;ratioP2;P2;SDS_P1;SDS_P2;PMS_P1;PMS_P2;Temp;Humidity;BMP_temperature;BMP_pressure;BME280_temperature;BME280_humidity;BME280_pressure;Samples;Min_cycle;Max_cycle;Signal;HPM_P1;HPM_P2
2023/01/24 00:00:20;;;;;;;42.05;25.42;;;2.60;99.90;;;;;;5073024;28;20056;-52
2023/01/24 00:03:11;;;;;;;38.03;24.77;;;2.70;99.90;;;;;;5074157;28;20025;-51
2023/01/24 00:05:57;;;;;;;36.85;24.58;;;2.60;99.90;;;;;;5072153;28;20029;-49
2023/01/24 00:08:43;;;;;;;38.33;24.13;;;2.60;99.90;;;;;;5072609;28;20041;-50
2023/01/24 00:11:29;;;;;;;35.65;22.77;;;2.60;99.90;;;;;;5072442;28;20028;-47
2023/01/24 00:14:15;;;;;;;40.53;25.50;;;2.60;99.90;;;;;;5073413;28;20035;-49
2023/01/24 00:17:01;;;;;;;37.70;24.20;;;2.60;99.90;;;;;;5066128;28;20020;-47
2023/01/24 00:19:47;;;;;;;35.00;24.45;;;2.50;99.90;;;;;;5072758;28;20032;-48
2023/01/24 00:22:33;;;;;;;37.13;24.05;;;2.60;99.90;;;;;;5066478;28;20459;-51
2023/01/24 00:25:19;;;;;;;37.15;23.00;;;2.60;99.90;;;;;;5071300;28;20412;-50
2023/01/24 00:28:05;;;;;;;34.65;23.02;;;2.50;99.90;;;;;;5072121;28;20428;-56
2023/01/24 00:30:51;;;;;;;37.63;22.75;;;2.50;99.90;;;;;;5072067;28;20033;-54
2023/01/24 00:33:37;;;;;;;34.78;22.38;;;2.60;99.90;;;;;;5045469;28;20496;-54
2023/01/24 00:36:23;;;;;;;34.10;22.40;;;2.50;99.90;;;;;;5071875;28;20033;-54
2023/01/24 00:39:10;;;;;;;33.90;21.27;;;2.50;99.90;;;;;;5071541;28;20147;-47
2023/01/24 00:41:56;;;;;;;34.17;21.60;;;2.50;99.90;;;;;;5068382;28;20043;-48
2023/01/24 00:44:42;;;;;;;35.22;22.02;;;2.50;99.90;;;;;;5071816;28;20020;-59
2023/01/24 00:47:28;;;;;;;33.40;22.80;;;2.50;99.90;;;;;;5071464;28;20512;-50
2023/01/24 00:50:14;;;;;;;33.38;20.73;;;2.50;99.90;;;;;;5073096;28;20027;-48
2023/01/24 00:53:01;;;;;;;34.85;20.98;;;2.50;99.90;;;;;;5069625;28;20033;-49
2023/01/24 00:55:48;;;;;;;34.15;21.88;;;2.50;99.90;;;;;;5071848;28;20040;-48
2023/01/24 00:58:34;;;;;;;34.53;22.02;;;2.50;99.90;;;;;;5070567;28;20033;-55
2023/01/24 01:01:20;;;;;;;32.05;21.23;;;2.50;99.90;;;;;;5072219;28;20107;-51
2023/01/24 01:04:06;;;;;;;29.83;20.17;;;2.50;99.90;;;;;;5073801;28;20021;-52
2023/01/24 01:06:52;;;;;;;34.25;21.25;;;2.40;99.90;;;;;;5073191;28;20099;-52
2023/01/24 01:09:38;;;;;;;32.42;20.48;;;2.50;99.90;;;;;;5058256;28;20033;-55
2023/01/24 01:12:24;;;;;;;34.90;20.88;;;2.40;99.90;;;;;;5071487;28;20175;-54
2023/01/24 01:15:10;;;;;;;33.70;21.95;;;2.40;99.90;;;;;;5074721;28;20024;-49
2023/01/24 01:17:58;;;;;;;30.83;20.25;;;2.40;99.90;;;;;;5077522;28;20469;-56
2023/01/24 01:20:51;;;;;;;31.70;20.75;;;2.40;99.90;;;;;;5065096;28;20028;-48
2023/01/24 01:23:37;;;;;;;31.55;21.05;;;2.50;99.90;;;;;;5077003;28;20025;-54
2023/01/24 01:26:23;;;;;;;31.50;20.67;;;2.40;99.90;;;;;;5062353;28;20029;-51
2023/01/24 01:29:09;;;;;;;35.25;22.08;;;2.40;99.90;;;;;;5059328;28;20043;-54
2023/01/24 01:31:55;;;;;;;30.88;20.90;;;2.30;99.90;;;;;;5071173;28;20045;-55
2023/01/24 01:34:41;;;;;;;29.80;19.70;;;2.40;99.90;;;;;;5070956;28;20468;-52
2023/01/24 01:37:27;;;;;;;30.55;20.90;;;2.40;99.90;;;;;;5071231;28;20677;-52
2023/01/24 01:40:13;;;;;;;29.02;20.20;;;2.50;99.90;;;;;;5072917;28;20108;-47
2023/01/24 01:42:59;;;;;;;32.45;20.13;;;2.40;99.90;;;;;;5070488;28;20504;-49
2023/01/24 01:45:49;;;;;;;29.42;20.05;;;2.50;99.90;;;;;;5071092;28;20548;-48
2023/01/24 01:48:43;;;;;;;28.85;19.88;;;2.50;99.90;;;;;;5070386;28;20068;-54
2023/01/24 01:51:45;;;;;;;30.55;19.67;;;2.40;99.90;;;;;;5071168;28;20029;-50
2023/01/24 01:54:36;;;;;;;30.35;19.70;;;2.40;99.90;;;;;;5072070;28;20043;-55
2023/01/24 01:57:29;;;;;;;29.52;19.95;;;2.40;99.90;;;;;;5068932;28;20109;-56
2023/01/24 02:00:20;;;;;;;28.15;19.58;;;2.50;99.90;;;;;;5071624;28;20024;-52
2023/01/24 02:06:25;;;;;;;32.15;20.33;;;2.50;99.90;;;;;;5073910;28;20512;-56
2023/01/24 02:09:14;;;;;;;26.55;19.30;;;2.40;99.90;;;;;;5074370;28;20035;-49
2023/01/24 02:12:03;;;;;;;28.95;19.05;;;2.50;99.90;;;;;;5074043;28;20067;-54
2023/01/24 02:18:00;;;;;;;25.60;18.15;;;2.50;99.90;;;;;;5062868;28;20045;-48
2023/01/24 02:20:47;;;;;;;31.10;20.63;;;2.50;99.90;;;;;;5072854;28;20374;-54
2023/01/24 02:23:54;;;;;;;28.13;19.75;;;2.40;99.90;;;;;;5060034;28;20059;-50
2023/01/24 02:26:40;;;;;;;27.85;19.88;;;2.40;99.90;;;;;;5070491;28;20031;-53
2023/01/24 02:29:26;;;;;;;31.42;21.05;;;2.40;99.90;;;;;;5053970;28;20025;-48
2023/01/24 02:32:14;;;;;;;28.92;19.05;;;2.40;99.90;;;;;;5061347;28;20420;-54
2023/01/24 02:35:01;;;;;;;30.00;19.95;;;2.40;99.90;;;;;;5070078;28;20032;-52
2023/01/24 02:37:47;;;;;;;29.20;18.90;;;2.40;99.90;;;;;;5070925;28;20108;-56
2023/01/24 02:40:34;;;;;;;29.17;19.05;;;2.40;99.90;;;;;;5070104;28;20047;-53
2023/01/24 02:43:25;;;;;;;28.70;19.13;;;2.40;99.90;;;;;;5070007;28;20046;-50
2023/01/24 02:46:11;;;;;;;28.52;18.98;;;2.40;99.90;;;;;;5067758;28;20036;-49
2023/01/24 02:48:57;;;;;;;27.80;18.60;;;2.30;99.90;;;;;;5069430;28;20020;-54
2023/01/24 02:54:47;;;;;;;29.02;19.33;;;2.30;99.90;;;;;;5070476;28;20056;-57
2023/01/24 03:00:41;;;;;;;25.55;17.85;;;2.30;99.90;;;;;;5069796;28;20020;-54
2023/01/24 03:03:27;;;;;;;29.73;20.13;;;2.30;99.90;;;;;;5070002;28;20021;-54
2023/01/24 03:06:14;;;;;;;29.95;18.95;;;2.20;99.90;;;;;;5069225;28;20020;-52
2023/01/24 03:09:14;;;;;;;26.08;17.33;;;2.20;99.90;;;;;;5070042;28;20107;-53
2023/01/24 03:36:37;;;;;;;26.30;17.50;;;2.30;99.90;;;;;;5049662;28;20025;-52
2023/01/24 03:42:27;;;;;;;28.15;18.83;;;2.20;99.90;;;;;;5069000;28;20025;-57
2023/01/24 03:45:24;;;;;;;25.38;17.20;;;2.20;99.90;;;;;;5068722;28;20044;-55
2023/01/24 03:48:13;;;;;;;28.55;17.65;;;2.20;99.90;;;;;;5050958;28;20033;-56
2023/01/24 03:54:04;;;;;;;26.80;17.23;;;2.10;99.90;;;;;;5070799;28;20096;-57
2023/01/24 03:56:50;;;;;;;29.00;18.13;;;2.00;99.90;;;;;;5068490;28;20521;-54
2023/01/24 03:59:36;;;;;;;30.80;20.50;;;2.00;99.90;;;;;;5069794;28;20731;-57
2023/01/24 04:02:22;;;;;;;27.52;18.55;;;2.00;99.90;;;;;;5069160;28;20519;-56
2023/01/24 04:05:14;;;;;;;27.00;18.52;;;2.00;99.90;;;;;;5068639;28;20028;-54
2023/01/24 04:08:00;;;;;;;25.20;17.55;;;2.00;99.90;;;;;;5069310;28;20043;-55
2023/01/24 04:10:46;;;;;;;24.73;17.13;;;2.10;99.90;;;;;;5069479;28;20067;-56
2023/01/24 04:13:31;;;;;;;26.92;18.58;;;2.10;99.90;;;;;;5069690;28;20024;-52
2023/01/24 04:16:17;;;;;;;28.10;18.45;;;2.10;99.90;;;;;;5054415;28;20029;-54
2023/01/24 04:19:03;;;;;;;28.25;19.10;;;2.10;99.90;;;;;;5068251;28;20032;-56
2023/01/24 04:21:49;;;;;;;25.48;16.88;;;2.10;99.90;;;;;;5060265;28;20550;-54
2023/01/24 04:24:35;;;;;;;27.80;18.38;;;2.10;99.90;;;;;;5069691;28;20086;-54
2023/01/24 04:27:21;;;;;;;27.58;18.45;;;2.10;99.90;;;;;;5067847;28;20021;-51
2023/01/24 04:30:11;;;;;;;30.40;19.42;;;2.00;99.90;;;;;;5068250;28;20504;-54
2023/01/24 04:32:57;;;;;;;27.35;17.08;;;2.00;99.90;;;;;;5069008;28;20020;-53
2023/01/24 04:35:43;;;;;;;27.70;17.67;;;2.00;99.90;;;;;;5070790;28;20447;-54
2023/01/24 04:38:28;;;;;;;29.48;19.42;;;2.00;99.90;;;;;;5072274;28;20040;-55
2023/01/24 04:41:14;;;;;;;29.02;17.92;;;2.10;99.90;;;;;;5072326;28;20489;-55
2023/01/24 04:44:00;;;;;;;27.35;18.83;;;2.10;99.90;;;;;;5071448;28;20063;-55
2023/01/24 04:46:46;;;;;;;29.55;19.70;;;2.10;99.90;;;;;;5072418;28;20445;-55
2023/01/24 04:49:32;;;;;;;32.08;19.67;;;2.10;99.90;;;;;;5072114;28;20399;-55
2023/01/24 04:52:18;;;;;;;27.02;18.30;;;2.10;99.90;;;;;;5071191;28;20082;-55
2023/01/24 04:55:05;;;;;;;27.85;18.08;;;2.10;99.90;;;;;;5071965;28;20113;-54
2023/01/24 04:57:50;;;;;;;25.98;17.27;;;2.10;99.90;;;;;;5071774;28;20044;-54
2023/01/24 05:00:36;;;;;;;28.35;17.30;;;2.10;99.90;;;;;;5071852;28;20059;-55
2023/01/24 05:03:22;;;;;;;28.35;18.65;;;2.10;99.90;;;;;;5072623;28;20044;-56
2023/01/24 05:06:08;;;;;;;28.67;17.95;;;2.10;99.90;;;;;;5072801;28;20037;-56
2023/01/24 05:09:04;;;;;;;28.35;19.38;;;2.00;99.90;;;;;;5075659;28;20032;-53
2023/01/24 05:11:49;;;;;;;;;;;2.00;99.90;;;;;;5073529;28;20040;-49
2023/01/24 05:14:35;;;;;;;27.48;18.02;;;2.10;99.90;;;;;;5072471;28;19908;-55
2023/01/24 05:17:21;;;;;;;27.85;17.80;;;2.00;99.90;;;;;;5071467;28;20066;-48
2023/01/24 05:20:08;;;;;;;28.33;18.70;;;2.10;99.90;;;;;;5067682;28;20028;-52
2023/01/24 05:22:58;;;;;;;31.45;18.08;;;2.10;99.90;;;;;;5072181;28;20029;-52
2023/01/24 05:25:43;;;;;;;29.52;19.08;;;2.10;99.90;;;;;;5071452;28;20508;-52
2023/01/24 05:28:30;;;;;;;29.92;18.80;;;2.10;99.90;;;;;;5056682;28;20408;-53
2023/01/24 05:31:16;;;;;;;32.15;18.45;;;2.10;99.90;;;;;;5063288;28;20067;-52
2023/01/24 05:34:04;;;;;;;32.80;19.25;;;2.10;99.90;;;;;;5070390;28;20028;-51
2023/01/24 05:36:50;;;;;;;29.90;19.58;;;2.10;99.90;;;;;;5071465;28;20028;-50
2023/01/24 05:39:36;;;;;;;31.20;20.33;;;2.10;99.90;;;;;;5070808;28;20409;-48
2023/01/24 05:42:22;;;;;;;27.15;17.75;;;2.10;99.90;;;;;;5071874;28;20028;-49
2023/01/24 05:45:10;;;;;;;29.17;19.05;;;2.20;99.90;;;;;;5070805;28;20056;-55
2023/01/24 05:47:55;;;;;;;29.45;18.95;;;2.10;99.90;;;;;;5072552;28;20032;-54
2023/01/24 05:50:41;;;;;;;28.40;18.60;;;2.00;99.90;;;;;;5073698;28;20515;-58
2023/01/24 05:53:29;;;;;;;30.70;20.08;;;2.00;99.90;;;;;;5056998;28;20471;-57
2023/01/24 05:56:18;;;;;;;28.35;18.35;;;2.10;99.90;;;;;;5068722;28;20079;-57
2023/01/24 05:59:04;;;;;;;29.27;18.58;;;2.10;99.90;;;;;;5070572;28;20124;-55
2023/01/24 06:01:50;;;;;;;30.17;19.50;;;2.10;99.90;;;;;;5071724;28;20060;-55
2023/01/24 06:04:36;;;;;;;31.05;19.05;;;2.00;99.90;;;;;;5071648;28;20028;-53
2023/01/24 06:07:22;;;;;;;28.77;19.92;;;2.00;99.90;;;;;;5071155;28;20028;-57
2023/01/24 06:10:10;;;;;;;30.80;20.15;;;2.10;99.90;;;;;;5070785;28;20056;-58
2023/01/24 06:12:58;;;;;;;29.58;19.17;;;2.10;99.90;;;;;;5071902;28;20029;-56
2023/01/24 06:15:44;;;;;;;26.98;17.10;;;2.00;99.90;;;;;;5049344;28;20040;-57
2023/01/24 06:18:30;;;;;;;25.55;17.80;;;2.00;99.90;;;;;;5069638;28;20507;-56
2023/01/24 06:21:44;;;;;;;31.52;19.52;;;2.00;99.90;;;;;;5034059;28;20441;-58
2023/01/24 06:24:30;;;;;;;30.30;18.90;;;2.00;99.90;;;;;;5072311;28;20055;-56
2023/01/24 06:27:17;;;;;;;32.63;20.70;;;2.00;99.90;;;;;;5072710;28;20032;-55
2023/01/24 06:30:03;;;;;;;26.80;18.60;;;2.00;99.90;;;;;;5073886;28;20126;-54
2023/01/24 06:32:55;;;;;;;30.90;18.38;;;2.10;99.90;;;;;;5070214;28;20033;-55
2023/01/24 06:36:37;;;;;;;29.25;18.60;;;1.90;99.90;;;;;;5070276;28;20064;-56
2023/01/24 06:39:24;;;;;;;33.58;18.98;;;1.90;99.90;;;;;;5009862;28;20113;-57
2023/01/24 06:42:10;;;;;;;27.05;18.08;;;2.00;99.90;;;;;;5024089;28;20033;-54
2023/01/24 06:44:56;;;;;;;27.73;17.70;;;2.00;99.90;;;;;;5070269;28;20263;-54
2023/01/24 06:47:42;;;;;;;28.95;19.55;;;2.00;99.90;;;;;;5070276;28;20032;-58
2023/01/24 06:50:31;;;;;;;29.40;19.08;;;2.00;99.90;;;;;;5071063;28;20504;-56
2023/01/24 06:53:17;;;;;;;42.55;19.42;;;2.00;99.90;;;;;;5070253;28;20040;-57
2023/01/24 06:56:03;;;;;;;29.42;18.38;;;2.00;99.90;;;;;;5069500;28;20123;-55
2023/01/24 06:58:49;;;;;;;32.83;19.77;;;2.00;99.90;;;;;;5070534;28;20089;-56
2023/01/24 07:01:34;;;;;;;30.08;19.90;;;2.00;99.90;;;;;;5057151;28;20074;-52
2023/01/24 07:04:20;;;;;;;30.42;20.23;;;2.00;99.90;;;;;;5075467;28;20455;-53
2023/01/24 07:07:06;;;;;;;29.75;19.50;;;2.00;99.90;;;;;;5073627;28;20032;-55
2023/01/24 07:09:52;;;;;;;29.15;18.52;;;2.00;99.90;;;;;;5075176;28;20108;-52
2023/01/24 07:12:42;;;;;;;27.58;18.48;;;2.00;99.90;;;;;;5074426;28;20029;-53
2023/01/24 07:15:28;;;;;;;30.42;19.63;;;2.00;99.90;;;;;;5065115;28;20043;-58
2023/01/24 07:18:16;;;;;;;28.23;19.17;;;1.90;99.90;;;;;;5071680;28;20043;-56
2023/01/24 07:21:06;;;;;;;29.77;18.83;;;1.90;99.90;;;;;;5071510;28;20036;-54
2023/01/24 07:23:55;;;;;;;30.15;18.75;;;1.90;99.90;;;;;;5070434;28;20029;-55
2023/01/24 07:26:41;;;;;;;29.20;19.55;;;1.90;99.90;;;;;;5049374;28;20401;-55
2023/01/24 07:29:27;;;;;;;30.30;19.48;;;1.90;99.90;;;;;;5055589;28;20595;-56
2023/01/24 07:32:13;;;;;;;42.97;22.25;;;1.90;99.90;;;;;;5069149;28;20036;-57
2023/01/24 07:34:59;;;;;;;31.20;19.95;;;2.00;99.90;;;;;;5069912;28;20540;-55
2023/01/24 07:37:45;;;;;;;29.80;18.95;;;2.00;99.90;;;;;;5069456;28;20439;-56
2023/01/24 07:40:31;;;;;;;32.85;20.15;;;2.00;99.90;;;;;;5069679;28;20033;-56
2023/01/24 07:43:19;;;;;;;32.38;20.45;;;1.90;99.90;;;;;;5069992;28;20630;-58
2023/01/24 07:46:05;;;;;;;30.15;18.75;;;2.00;99.90;;;;;;5068793;28;20033;-55
2023/01/24 07:48:51;;;;;;;31.48;20.33;;;2.00;99.90;;;;;;5070982;28;20032;-57
2023/01/24 07:51:37;;;;;;;33.13;20.98;;;2.00;99.90;;;;;;5071216;28;20148;-55
2023/01/24 07:54:23;;;;;;;33.85;19.55;;;2.00;99.90;;;;;;5070564;28;20035;-58
2023/01/24 07:57:09;;;;;;;30.65;19.98;;;2.10;99.90;;;;;;5068894;28;20036;-56
2023/01/24 07:59:55;;;;;;;33.50;20.23;;;2.10;99.90;;;;;;5068795;28;20093;-59
2023/01/24 08:02:41;;;;;;;34.08;19.92;;;2.10;99.90;;;;;;5067030;28;20037;-54
2023/01/24 08:05:27;;;;;;;32.17;19.98;;;2.20;99.90;;;;;;5055063;28;20032;-53
2023/01/24 08:08:13;;;;;;;32.90;19.20;;;2.20;99.90;;;;;;5072417;28;20098;-53
2023/01/24 08:10:59;;;;;;;31.23;20.15;;;2.20;99.90;;;;;;5072972;28;20121;-58
2023/01/24 08:13:46;;;;;;;33.47;19.50;;;2.20;99.90;;;;;;5046875;28;20031;-58
2023/01/24 08:16:32;;;;;;;31.02;19.80;;;2.20;99.90;;;;;;5072538;28;20489;-55
2023/01/24 08:19:18;;;;;;;32.50;20.13;;;2.20;99.90;;;;;;5073423;28;20029;-51
2023/01/24 08:22:04;;;;;;;31.05;19.48;;;2.10;99.90;;;;;;5062804;28;20124;-57
2023/01/24 08:24:50;;;;;;;31.27;20.25;;;2.10;99.90;;;;;;5072716;28;20049;-57
2023/01/24 08:27:39;;;;;;;34.35;20.83;;;2.10;99.90;;;;;;5074534;28;20024;-56
2023/01/24 08:30:25;;;;;;;34.72;20.83;;;2.10;99.90;;;;;;5073985;28;20017;-57
2023/01/24 08:33:17;;;;;;;38.40;21.48;;;2.10;99.90;;;;;;5074813;28;20635;-59
2023/01/24 08:36:03;;;;;;;33.40;20.30;;;2.30;99.90;;;;;;5054117;28;20029;-58
2023/01/24 08:38:49;;;;;;;33.22;20.75;;;2.20;99.90;;;;;;5061300;28;20052;-54
2023/01/24 08:41:35;;;;;;;33.78;20.40;;;2.20;99.90;;;;;;5077340;28;20017;-54
2023/01/24 08:44:21;;;;;;;34.30;20.33;;;2.20;99.90;;;;;;5078787;28;20435;-57
2023/01/24 08:47:08;;;;;;;33.85;21.02;;;2.20;99.90;;;;;;5076422;28;20453;-58
2023/01/24 08:49:54;;;;;;;36.20;21.58;;;2.10;99.90;;;;;;5076192;28;20520;-60
2023/01/24 08:52:40;;;;;;;37.03;21.95;;;2.10;99.90;;;;;;5074731;28;20117;-55
2023/01/24 08:55:26;;;;;;;29.98;20.05;;;2.20;99.90;;;;;;5069495;28;20045;-58
2023/01/24 08:58:11;;;;;;;33.05;20.63;;;2.20;99.90;;;;;;5070919;28;20110;-52
2023/01/24 09:01:01;;;;;;;32.67;19.88;;;2.20;99.90;;;;;;5071663;28;20025;-57
2023/01/24 09:03:48;;;;;;;36.70;21.98;;;2.20;99.90;;;;;;5066501;28;20017;-52
2023/01/24 09:06:34;;;;;;;35.75;21.05;;;2.20;99.90;;;;;;5070266;28;20099;-56
2023/01/24 09:09:20;;;;;;;35.15;21.58;;;2.20;99.90;;;;;;5070548;28;20028;-59
2023/01/24 09:12:06;;;;;;;35.28;21.25;;;2.20;99.90;;;;;;5063883;28;20485;-58
2023/01/24 09:14:52;;;;;;;34.35;20.85;;;2.20;99.90;;;;;;5071639;28;20111;-56
2023/01/24 09:17:39;;;;;;;35.95;22.33;;;2.00;99.90;;;;;;5073094;28;20025;-56
2023/01/24 09:20:25;;;;;;;39.38;23.73;;;2.10;99.90;;;;;;5073145;28;20104;-57
2023/01/24 09:23:14;;;;;;;38.85;23.90;;;2.20;99.90;;;;;;5073196;28;20025;-56
2023/01/24 09:26:00;;;;;;;36.55;21.45;;;2.20;99.90;;;;;;5072563;28;20063;-53
2023/01/24 09:28:46;;;;;;;38.92;22.40;;;2.20;99.90;;;;;;5070176;28;20083;-54
2023/01/24 09:31:32;;;;;;;34.08;21.20;;;2.30;99.90;;;;;;5072484;28;20101;-55
2023/01/24 09:34:18;;;;;;;34.50;22.20;;;2.30;99.90;;;;;;5071330;28;20039;-54
2023/01/24 09:37:04;;;;;;;40.58;23.02;;;2.30;99.90;;;;;;5062820;28;20157;-55
2023/01/24 09:39:49;;;;;;;39.42;23.75;;;2.40;99.90;;;;;;5075236;28;20040;-58
2023/01/24 09:42:44;;;;;;;37.58;21.98;;;2.30;99.90;;;;;;5071177;28;20036;-57
2023/01/24 09:45:41;;;;;;;37.77;21.83;;;2.20;99.90;;;;;;5064641;28;20028;-57
2023/01/24 09:48:28;;;;;;;37.28;21.98;;;2.30;99.90;;;;;;5063565;28;20048;-56
2023/01/24 09:51:24;;;;;;;41.83;23.65;;;2.30;99.90;;;;;;5072570;28;20392;-58
2023/01/24 09:54:17;;;;;;;38.50;21.75;;;2.40;99.90;;;;;;5072971;28;20086;-55
2023/01/24 09:57:21;;;;;;;37.92;22.73;;;2.40;99.90;;;;;;5070507;28;20051;-56
2023/01/24 10:00:34;;;;;;;38.47;22.10;;;2.40;99.90;;;;;;5068480;28;20020;-58
2023/01/24 10:03:22;;;;;;;36.70;21.42;;;2.40;99.90;;;;;;5070827;28;20775;-56
2023/01/24 10:06:17;;;;;;;38.28;22.63;;;2.40;99.90;;;;;;5072877;28;20365;-54
2023/01/24 10:09:31;;;;;;;38.17;23.27;;;2.40;99.90;;;;;;5070522;28;20020;-53
2023/01/24 10:12:47;;;;;;;35.05;20.48;;;2.50;99.90;;;;;;5067460;28;20044;-55
2023/01/24 10:15:44;;;;;;;34.78;22.25;;;2.50;99.90;;;;;;5068645;28;20125;-57
2023/01/24 10:18:36;;;;;;;40.75;21.10;;;2.50;99.90;;;;;;5068468;28;20115;-53
2023/01/24 10:22:12;;;;;;;35.25;21.58;;;2.40;99.90;;;;;;5069971;28;20058;-57
2023/01/24 10:25:04;;;;;;;39.13;21.45;;;2.40;99.90;;;;;;5068709;28;20110;-54
2023/01/24 10:27:55;;;;;;;31.15;20.70;;;2.50;99.90;;;;;;5069809;28;20060;-55
2023/01/24 10:30:47;;;;;;;44.70;22.17;;;2.50;99.90;;;;;;5069523;28;20025;-58
2023/01/24 10:33:44;;;;;;;39.72;22.75;;;2.40;99.90;;;;;;5069481;28;20539;-55
2023/01/24 10:36:35;;;;;;;40.05;20.67;;;2.40;99.90;;;;;;5067718;28;20033;-54
2023/01/24 10:39:21;;;;;;;35.50;21.15;;;2.60;99.90;;;;;;5069799;28;20561;-57
2023/01/24 10:42:26;;;;;;;38.97;22.38;;;2.50;99.90;;;;;;5070983;28;20056;-57
2023/01/24 10:45:24;;;;;;;34.00;20.70;;;2.50;99.90;;;;;;5070017;28;20078;-56
2023/01/24 10:48:38;;;;;;;36.75;21.52;;;2.60;99.90;;;;;;5069060;28;20040;-54
2023/01/24 10:51:24;;;;;;;35.40;21.98;;;2.60;99.90;;;;;;5070100;28;20025;-49
2023/01/24 10:54:23;;;;;;;32.95;21.00;;;2.60;99.90;;;;;;5070242;28;20509;-57
2023/01/24 10:57:24;;;;;;;38.97;22.00;;;2.50;99.90;;;;;;5070481;28;20036;-49
2023/01/24 11:00:34;;;;;;;39.63;22.83;;;2.50;99.90;;;;;;5072739;28;20039;-49
2023/01/24 11:03:25;;;;;;;37.15;21.67;;;2.50;99.90;;;;;;5070152;28;20090;-53
2023/01/24 11:06:24;;;;;;;31.92;20.83;;;2.60;99.90;;;;;;5069721;28;20100;-50
2023/01/24 11:09:34;;;;;;;36.80;22.17;;;2.50;99.90;;;;;;5070767;28;20024;-50
2023/01/24 11:12:21;;;;;;;35.85;21.73;;;2.50;99.90;;;;;;5070169;28;20024;-48
2023/01/24 11:15:20;;;;;;;34.85;21.35;;;2.60;99.90;;;;;;5069730;28;20055;-47
2023/01/24 11:18:23;;;;;;;39.30;21.75;;;2.60;99.90;;;;;;5070603;28;20056;-47
2023/01/24 11:21:15;;;;;;;35.35;20.90;;;2.50;99.90;;;;;;5070573;28;20116;-50
2023/01/24 11:24:04;;;;;;;34.40;20.52;;;2.60;99.90;;;;;;5071490;28;20487;-51
2023/01/24 11:27:14;;;;;;;40.25;21.73;;;2.60;99.90;;;;;;5070072;28;20039;-55
2023/01/24 11:30:20;;;;;;;29.60;19.48;;;2.50;99.90;;;;;;5070985;28;20488;-48
2023/01/24 11:33:54;;;;;;;34.00;20.65;;;2.50;99.90;;;;;;5070562;28;20581;-49
2023/01/24 11:37:09;;;;;;;32.45;19.33;;;2.50;99.90;;;;;;5068826;28;20084;-49
2023/01/24 11:40:04;;;;;;;35.90;22.60;;;2.50;99.90;;;;;;5070859;28;20032;-53
2023/01/24 11:43:08;;;;;;;36.92;22.20;;;2.50;99.90;;;;;;5071743;28;20430;-52
2023/01/24 11:46:17;;;;;;;37.35;21.13;;;2.50;99.90;;;;;;5073567;28;20431;-51
2023/01/24 11:49:41;;;;;;;40.03;22.08;;;2.50;99.90;;;;;;5074285;28;20523;-58
2023/01/24 11:52:30;;;;;;;32.42;20.38;;;2.50;99.90;;;;;;5074683;28;20073;-51
2023/01/24 11:55:49;;;;;;;34.05;20.40;;;2.60;99.90;;;;;;5073927;28;20090;-52
2023/01/24 11:58:56;;;;;;;33.25;21.17;;;2.60;99.90;;;;;;5074606;28;20112;-55
2023/01/24 12:01:55;;;;;;;34.05;21.42;;;2.60;99.90;;;;;;5074071;28;20025;-56
2023/01/24 12:05:25;;;;;;;37.42;21.40;;;2.60;99.90;;;;;;5074184;28;20058;-57
2023/01/24 12:08:20;;;;;;;36.67;22.55;;;2.50;99.90;;;;;;5069154;28;20056;-57
2023/01/24 12:12:02;;;;;;;36.90;21.60;;;2.50;99.90;;;;;;5074049;28;20052;-52
2023/01/24 12:15:08;;;;;;;35.22;22.20;;;2.50;99.90;;;;;;5074156;28;20561;-53
2023/01/24 12:18:00;;;;;;;36.90;21.60;;;2.50;99.90;;;;;;5073815;28;20378;-52
2023/01/24 12:21:09;;;;;;;35.90;22.27;;;2.50;99.90;;;;;;5073441;28;20074;-53
2023/01/24 12:24:02;;;;;;;36.65;21.73;;;2.50;99.90;;;;;;5073838;28;20070;-50
2023/01/24 12:26:52;;;;;;;37.45;21.48;;;2.50;99.90;;;;;;5072951;28;20048;-56
2023/01/24 12:30:05;;;;;;;35.17;22.20;;;2.60;99.90;;;;;;5073589;28;20036;-55
2023/01/24 12:33:17;;;;;;;33.63;21.40;;;2.50;99.90;;;;;;5073613;28;20078;-53
2023/01/24 12:36:15;;;;;;;34.55;21.55;;;2.60;99.90;;;;;;5071503;28;20025;-53
2023/01/24 12:39:11;;;;;;;36.67;22.05;;;2.60;99.90;;;;;;5074691;28;20029;-56
2023/01/24 12:42:43;;;;;;;36.53;21.27;;;2.60;99.90;;;;;;5075312;28;20044;-54
2023/01/24 12:45:32;;;;;;;35.03;21.80;;;2.50;99.90;;;;;;5067465;28;20036;-51
2023/01/24 12:48:34;;;;;;;32.85;20.65;;;2.50;99.90;;;;;;5073992;28;20373;-55
2023/01/24 12:51:23;;;;;;;33.03;21.63;;;2.50;99.90;;;;;;5072487;28;20024;-56
2023/01/24 12:54:41;;;;;;;35.70;21.23;;;2.50;99.90;;;;;;5073206;28;20221;-54
2023/01/24 12:57:47;;;;;;;34.72;21.23;;;2.60;99.90;;;;;;5072764;28;20696;-58
2023/01/24 13:01:13;;;;;;;35.63;21.13;;;2.70;99.90;;;;;;5074068;28;20029;-55
2023/01/24 13:04:21;;;;;;;33.97;21.25;;;2.70;99.90;;;;;;5041952;28;20289;-50
2023/01/24 13:07:51;;;;;;;34.88;21.77;;;2.60;99.90;;;;;;5073291;28;20028;-51
2023/01/24 13:11:07;;;;;;;34.40;20.33;;;2.60;99.90;;;;;;5071157;28;20090;-52
2023/01/24 13:14:32;;;;;;;37.00;21.17;;;2.60;99.90;;;;;;5072718;28;20028;-54
2023/01/24 13:17:45;;;;;;;29.98;19.23;;;2.50;99.90;;;;;;5073298;28;20082;-56
2023/01/24 13:20:51;;;;;;;35.72;20.55;;;2.60;99.90;;;;;;5073190;28;20101;-57
2023/01/24 13:24:06;;;;;;;30.65;19.70;;;2.60;99.90;;;;;;5073942;28;20027;-54
2023/01/24 13:27:18;;;;;;;35.08;22.05;;;2.60;99.90;;;;;;5077590;28;20029;-58
2023/01/24 13:30:22;;;;;;;33.40;20.80;;;2.60;99.90;;;;;;5075963;28;20027;-52
2023/01/24 13:33:15;;;;;;;34.15;20.73;;;2.60;99.90;;;;;;5075867;28;20548;-57
2023/01/24 13:36:04;;;;;;;30.92;20.52;;;2.50;99.90;;;;;;5074857;28;20028;-53
2023/01/24 13:38:53;;;;;;;32.42;21.10;;;2.60;99.90;;;;;;5076025;28;20039;-53
2023/01/24 13:41:39;;;;;;;32.20;19.88;;;2.70;99.90;;;;;;5072906;28;20060;-57
2023/01/24 13:44:33;;;;;;;33.92;20.40;;;2.70;99.90;;;;;;5073543;28;20036;-52
2023/01/24 13:47:19;;;;;;;30.80;19.85;;;2.70;99.90;;;;;;5072053;28;20016;-50
2023/01/24 13:50:15;;;;;;;32.33;19.92;;;2.70;99.90;;;;;;5072283;28;20488;-50
2023/01/24 13:53:02;;;;;;;35.40;22.15;;;2.70;99.90;;;;;;5072709;28;20036;-51
2023/01/24 13:56:02;;;;;;;30.77;20.75;;;2.70;99.90;;;;;;5071427;28;20508;-58
2023/01/24 13:58:52;;;;;;;29.45;19.02;;;2.60;99.90;;;;;;5071199;28;20060;-53
2023/01/24 14:01:45;;;;;;;28.70;18.58;;;2.70;99.90;;;;;;5071869;28;20025;-52
2023/01/24 14:04:42;;;;;;;32.42;19.75;;;2.70;99.90;;;;;;5071590;28;20063;-55
2023/01/24 14:07:35;;;;;;;32.42;19.63;;;2.70;99.90;;;;;;5069857;28;20032;-54
2023/01/24 14:10:33;;;;;;;29.80;18.65;;;2.90;99.90;;;;;;5071614;28;20016;-56
2023/01/24 14:13:47;;;;;;;33.30;20.60;;;2.70;99.90;;;;;;5066105;28;20036;-52
2023/01/24 14:16:39;;;;;;;32.25;19.92;;;2.70;99.90;;;;;;5069009;28;20382;-51
2023/01/24 14:19:30;;;;;;;29.60;19.35;;;2.70;99.90;;;;;;5050479;28;20025;-50
2023/01/24 14:22:21;;;;;;;29.75;18.92;;;2.70;99.90;;;;;;5066911;28;20051;-53
2023/01/24 14:25:55;;;;;;;31.02;19.38;;;2.70;99.90;;;;;;5076519;28;20028;-51
2023/01/24 14:28:47;;;;;;;30.45;19.38;;;2.70;99.90;;;;;;5064668;28;20028;-49
2023/01/24 14:31:37;;;;;;;34.00;21.63;;;2.70;99.90;;;;;;5057260;28;20060;-53
2023/01/24 14:34:38;;;;;;;36.92;21.08;;;2.60;99.90;;;;;;5071329;28;20021;-52
2023/01/24 14:37:26;;;;;;;29.05;19.85;;;2.60;99.90;;;;;;5071482;28;20075;-57
2023/01/24 14:40:25;;;;;;;29.77;19.48;;;2.70;99.90;;;;;;5072167;28;20035;-51
2023/01/24 14:43:13;;;;;;;30.80;19.23;;;2.70;99.90;;;;;;5070720;28;20025;-50
2023/01/24 14:46:09;;;;;;;28.50;20.10;;;2.80;99.90;;;;;;5071144;28;20052;-58
2023/01/24 14:48:55;;;;;;;29.75;18.70;;;2.80;99.90;;;;;;5051004;28;20033;-55
2023/01/24 14:51:47;;;;;;;31.95;21.15;;;2.80;99.90;;;;;;5052026;28;20025;-50
2023/01/24 14:54:34;;;;;;;27.67;18.95;;;2.80;99.90;;;;;;5050813;28;20029;-53
2023/01/24 14:57:25;;;;;;;39.67;24.02;;;2.80;99.90;;;;;;5049582;28;20603;-51
2023/01/24 15:00:11;;;;;;;29.75;20.00;;;2.70;99.90;;;;;;5050749;28;20077;-53
2023/01/24 15:03:02;;;;;;;29.98;19.35;;;2.80;99.90;;;;;;5053615;28;20082;-52
2023/01/24 15:05:58;;;;;;;32.47;20.08;;;2.80;99.90;;;;;;5049645;28;20028;-50
2023/01/24 15:08:44;;;;;;;34.60;20.60;;;2.70;99.90;;;;;;5051930;28;20059;-49
2023/01/24 15:11:35;;;;;;;30.33;19.83;;;2.70;99.90;;;;;;5050525;28;20033;-48
2023/01/24 15:14:22;;;;;;;32.28;18.98;;;2.60;99.90;;;;;;5064591;28;20031;-55
2023/01/24 15:17:36;;;;;;;29.92;18.83;;;2.50;99.90;;;;;;5054761;28;20044;-56
2023/01/24 15:20:22;;;;;;;28.75;18.95;;;2.50;99.90;;;;;;5070834;28;20031;-50
2023/01/24 15:23:20;;;;;;;30.77;20.85;;;2.50;99.90;;;;;;5053550;28;20458;-54
2023/01/24 15:26:23;;;;;;;34.30;21.35;;;2.50;99.90;;;;;;5065266;28;20032;-54
2023/01/24 15:29:38;;;;;;;33.88;20.95;;;2.50;99.90;;;;;;5050498;28;20025;-55